createdAt,value
2023-05-06T00:01:59.016Z,15.50
2023-05-06T00:04:25.905Z,14.03
2023-05-06T00:06:52.889Z,16.27
2023-05-06T00:09:19.471Z,25.20
2023-05-06T00:11:46.270Z,118.77
2023-05-06T00:14:12.816Z,51.57
2023-05-06T00:16:39.908Z,37.13
2023-05-06T00:19:06.933Z,33.90
2023-05-06T00:21:33.757Z,36.40
2023-05-06T00:24:00.555Z,25.03
2023-05-06T00:26:27.033Z,47.00
2023-05-06T00:28:53.824Z,17.37
2023-05-06T00:31:20.287Z,26.93
2023-05-06T00:33:47.116Z,24.27
2023-05-06T00:36:14.014Z,21.17
2023-05-06T00:38:40.657Z,21.97
2023-05-06T00:41:07.624Z,24.07
2023-05-06T00:43:34.078Z,21.43
2023-05-06T00:46:01.116Z,27.00
2023-05-06T00:48:28.467Z,57.13
2023-05-06T00:50:55.475Z,78.40
2023-05-06T00:53:22.377Z,70.80
2023-05-06T00:55:50.202Z,50.83
2023-05-06T00:58:19.121Z,136.53
2023-05-06T01:00:45.748Z,119.70
2023-05-06T01:03:12.699Z,36.77
2023-05-06T01:06:13.301Z,39.03
2023-05-06T01:08:47.877Z,88.30
2023-05-06T01:11:29.544Z,114.07
2023-05-06T01:14:19.466Z,73.83
2023-05-06T01:16:50.340Z,57.47
2023-05-06T01:19:33.638Z,47.23
2023-05-06T01:22:01.232Z,66.97
2023-05-06T01:24:43.092Z,48.80
2023-05-06T01:27:11.536Z,41.10
2023-05-06T01:29:42.603Z,52.03
2023-05-06T01:32:52.976Z,64.73
2023-05-06T01:35:32.762Z,104.97
2023-05-06T01:38:13.708Z,95.97
2023-05-06T01:40:43.825Z,80.80
2023-05-06T01:43:12.254Z,74.33
2023-05-06T01:45:40.191Z,62.57
2023-05-06T01:48:07.573Z,50.43
2023-05-06T01:50:35.434Z,58.30
2023-05-06T01:53:03.216Z,70.60
2023-05-06T01:55:29.710Z,68.87
2023-05-06T01:57:56.206Z,65.37
2023-05-06T02:00:23.359Z,47.53
2023-05-06T02:02:50.392Z,50.20
2023-05-06T02:05:17.355Z,43.17
2023-05-06T02:07:43.814Z,42.37
2023-05-06T02:10:11.040Z,32.67
2023-05-06T02:12:37.584Z,34.97
2023-05-06T02:15:04.462Z,34.73
2023-05-06T02:17:30.938Z,36.90
2023-05-06T02:19:57.748Z,29.67
2023-05-06T02:22:24.193Z,95.63
2023-05-06T02:24:50.962Z,53.27
2023-05-06T02:27:17.414Z,54.03
2023-05-06T02:29:44.050Z,41.57
2023-05-06T02:32:10.938Z,26.93
2023-05-06T02:34:37.401Z,22.57
2023-05-06T02:37:04.209Z,26.73
2023-05-06T02:39:31.105Z,44.03
2023-05-06T02:41:57.940Z,47.30
2023-05-06T02:44:24.719Z,42.23
2023-05-06T02:46:51.169Z,42.30
2023-05-06T02:49:17.991Z,35.00
2023-05-06T02:51:44.458Z,31.47
2023-05-06T02:54:11.296Z,42.43
2023-05-06T02:56:38.117Z,26.17
2023-05-06T02:59:06.390Z,43.90
2023-05-06T03:01:32.972Z,40.10
2023-05-06T03:03:59.978Z,34.03
2023-05-06T03:06:27.306Z,34.10
2023-05-06T03:08:53.758Z,37.73
2023-05-06T03:11:20.224Z,25.03
2023-05-06T03:13:46.674Z,28.33
2023-05-06T03:16:13.551Z,25.93
2023-05-06T03:18:40.558Z,83.13
2023-05-06T03:21:07.379Z,38.10
2023-05-06T03:23:33.846Z,28.43
2023-05-06T03:26:00.294Z,25.40
2023-05-06T03:28:27.326Z,29.90
2023-05-06T03:30:53.761Z,28.80
2023-05-06T03:33:20.529Z,51.07
2023-05-06T03:35:46.975Z,26.73
2023-05-06T03:38:13.785Z,22.37
2023-05-06T03:40:40.293Z,20.00
2023-05-06T03:43:07.213Z,24.70
2023-05-06T03:45:34.046Z,29.27
2023-05-06T03:48:00.578Z,25.27
2023-05-06T03:50:27.429Z,39.63
2023-05-06T03:52:53.946Z,33.13
2023-05-06T03:55:20.788Z,45.43
2023-05-06T03:57:47.226Z,44.93
2023-05-06T04:00:14.424Z,46.30
2023-05-06T04:02:40.971Z,40.07
2023-05-06T04:05:08.629Z,44.20
2023-05-06T04:07:35.648Z,43.40
2023-05-06T04:10:02.464Z,32.83
2023-05-06T04:12:28.938Z,68.57
2023-05-06T04:14:55.770Z,52.70
2023-05-06T04:17:22.210Z,57.80
2023-05-06T04:19:49.345Z,108.07
2023-05-06T04:22:16.157Z,80.50
2023-05-06T04:24:42.594Z,44.63
2023-05-06T04:27:09.409Z,52.87
2023-05-06T04:29:35.915Z,65.30
2023-05-06T04:32:03.005Z,53.53
2023-05-06T04:34:29.479Z,71.23
2023-05-06T04:36:56.307Z,67.67
2023-05-06T04:39:22.756Z,81.53
2023-05-06T04:41:49.695Z,110.30
2023-05-06T04:44:16.616Z,112.63
2023-05-06T04:46:43.263Z,71.10
2023-05-06T04:49:12.378Z,58.53
2023-05-06T04:51:39.002Z,89.73
2023-05-06T04:54:05.863Z,106.73
2023-05-06T04:56:32.929Z,66.97
2023-05-06T04:58:59.378Z,39.97
2023-05-06T05:01:25.849Z,50.27
2023-05-06T05:03:52.618Z,60.53
2023-05-06T05:06:19.491Z,72.23
2023-05-06T05:08:45.919Z,51.30
2023-05-06T05:11:12.678Z,60.50
2023-05-06T05:13:39.135Z,45.13
2023-05-06T05:16:06.322Z,63.60
2023-05-06T05:18:32.793Z,50.63
2023-05-06T05:20:59.596Z,96.53
2023-05-06T05:23:26.044Z,56.20
2023-05-06T05:25:52.676Z,150.87
2023-05-06T05:28:19.111Z,84.97
2023-05-06T05:30:45.979Z,45.53
2023-05-06T05:33:12.782Z,101.50
2023-05-06T05:35:39.430Z,127.87
2023-05-06T05:38:06.252Z,84.67
2023-05-06T05:40:32.727Z,71.77
2023-05-06T05:42:59.216Z,57.47
2023-05-06T05:45:25.659Z,60.77
2023-05-06T05:47:52.135Z,39.10
2023-05-06T05:50:19.070Z,45.90
2023-05-06T05:52:45.519Z,43.77
2023-05-06T05:55:12.333Z,31.90
2023-05-06T05:57:38.786Z,30.50
2023-05-06T06:00:07.626Z,25.93
2023-05-06T06:02:34.250Z,28.90
2023-05-06T06:05:01.165Z,25.57
2023-05-06T06:07:27.630Z,25.33
2023-05-06T06:09:54.334Z,24.17
2023-05-06T06:12:20.807Z,23.23
2023-05-06T06:14:47.251Z,23.87
2023-05-06T06:17:17.366Z,21.40
2023-05-06T06:19:45.795Z,22.37
2023-05-06T06:22:13.098Z,19.97
2023-05-06T06:24:39.581Z,20.77
2023-05-06T06:27:06.460Z,21.57
2023-05-06T06:29:32.911Z,18.70
2023-05-06T06:31:59.881Z,20.53
2023-05-06T06:34:26.381Z,25.17
2023-05-06T06:36:52.803Z,19.97
2023-05-06T06:39:19.646Z,19.53
2023-05-06T06:41:46.119Z,22.60
2023-05-06T06:44:13.262Z,17.80
2023-05-06T06:46:39.730Z,22.07
2023-05-06T06:49:06.514Z,19.50
2023-05-06T06:51:32.958Z,19.97
2023-05-06T06:53:59.404Z,19.87
2023-05-06T06:56:26.265Z,19.67
2023-05-06T06:58:53.358Z,17.50
2023-05-06T07:01:20.297Z,17.27
2023-05-06T07:03:46.809Z,17.27
2023-05-06T07:06:13.399Z,16.07
2023-05-06T07:08:40.395Z,17.23
2023-05-06T07:11:06.921Z,18.13
2023-05-06T07:13:33.657Z,16.93
2023-05-06T07:16:00.130Z,16.60
2023-05-06T07:18:26.952Z,17.17
2023-05-06T07:20:53.405Z,17.17
2023-05-06T07:23:19.900Z,15.93
2023-05-06T07:25:46.348Z,15.37
2023-05-06T07:28:12.791Z,12.30
2023-05-06T07:30:39.720Z,12.40
2023-05-06T07:33:06.520Z,13.27
2023-05-06T07:35:33.510Z,14.13
2023-05-06T07:38:00.853Z,14.20
2023-05-06T07:40:27.651Z,15.80
2023-05-06T07:42:54.394Z,13.53
2023-05-06T07:45:20.862Z,13.90
2023-05-06T07:47:47.461Z,14.03
2023-05-06T07:50:13.977Z,12.37
2023-05-06T07:52:40.577Z,14.97
2023-05-06T07:55:08.327Z,13.23
2023-05-06T07:57:35.246Z,13.30
2023-05-06T08:00:01.725Z,13.83
2023-05-06T08:02:28.648Z,12.37
2023-05-06T08:04:55.204Z,10.97
2023-05-06T08:07:22.203Z,12.97
2023-05-06T08:09:48.668Z,12.60
2023-05-06T08:14:42.413Z,11.13
2023-05-06T08:17:08.901Z,13.13
2023-05-06T08:19:35.752Z,14.63
2023-05-06T08:22:02.192Z,12.40
2023-05-06T08:24:29.198Z,11.33
2023-05-06T08:26:55.689Z,10.17
2023-05-06T08:29:22.142Z,9.40
2023-05-06T08:31:48.611Z,10.27
2023-05-06T08:34:15.473Z,11.13
2023-05-06T08:36:41.935Z,11.47
2023-05-06T08:39:08.734Z,9.17
2023-05-06T08:41:38.193Z,10.00
2023-05-06T08:44:05.852Z,8.73
2023-05-06T08:46:32.437Z,10.13
2023-05-06T08:48:59.614Z,9.70
2023-05-06T08:51:29.355Z,10.20
2023-05-06T08:54:01.501Z,8.43
2023-05-06T08:56:32.454Z,8.70
2023-05-06T08:58:59.556Z,7.10
2023-05-06T09:01:26.781Z,7.40
2023-05-06T09:03:54.670Z,6.60
2023-05-06T09:06:21.828Z,6.40
2023-05-06T09:08:48.290Z,9.55
2023-05-06T09:11:23.063Z,8.67
2023-05-06T09:13:50.526Z,5.87
2023-05-06T09:16:28.114Z,6.53
2023-05-06T09:18:54.579Z,7.13
2023-05-06T09:21:21.537Z,7.03
2023-05-06T09:23:48.286Z,8.20
2023-05-06T09:31:15.304Z,7.90
2023-05-06T09:36:09.161Z,7.50
2023-05-06T09:38:35.618Z,7.27
2023-05-06T09:41:03.705Z,7.60
2023-05-06T09:45:57.423Z,7.60
2023-05-06T09:48:28.804Z,5.00
2023-05-06T09:50:55.289Z,7.47
2023-05-06T09:53:22.249Z,7.17
2023-05-06T09:55:49.258Z,8.17
2023-05-06T09:58:17.177Z,8.83
2023-05-06T10:00:44.079Z,7.33
2023-05-06T10:03:13.045Z,6.80
2023-05-06T10:05:40.193Z,8.17
2023-05-06T10:08:09.348Z,7.53
2023-05-06T10:10:39.620Z,5.93
2023-05-06T10:13:06.494Z,6.67
2023-05-06T10:15:33.154Z,6.63
2023-05-06T10:18:00.815Z,6.40
2023-05-06T10:20:29.437Z,6.33
2023-05-06T10:23:03.452Z,7.50
2023-05-06T10:25:37.111Z,6.20
2023-05-06T10:28:06.335Z,5.83
2023-05-06T10:30:35.524Z,6.37
2023-05-06T10:33:11.013Z,7.23
2023-05-06T10:36:14.653Z,5.97
2023-05-06T10:38:44.240Z,6.07
2023-05-06T10:41:12.227Z,8.60
2023-05-06T10:43:43.777Z,7.53
2023-05-06T10:46:18.399Z,9.03
2023-05-06T10:49:03.855Z,8.27
2023-05-06T10:51:40.256Z,7.80
2023-05-06T10:54:19.899Z,7.23
2023-05-06T10:56:49.449Z,6.27
2023-05-06T10:59:21.181Z,6.37
2023-05-06T11:02:03.987Z,9.60
2023-05-06T11:04:33.248Z,6.80
2023-05-06T11:07:14.232Z,7.40
2023-05-06T11:10:05.607Z,7.27
2023-05-06T11:12:59.133Z,8.07
2023-05-06T11:15:26.569Z,7.60
2023-05-06T11:17:54.866Z,6.90
2023-05-06T11:20:22.695Z,6.23
2023-05-06T11:22:49.371Z,5.93
2023-05-06T11:25:39.562Z,6.53
2023-05-06T11:28:14.424Z,8.57
2023-05-06T11:30:43.260Z,5.23
2023-05-06T11:33:18.119Z,5.43
2023-05-06T11:35:45.531Z,5.10
2023-05-06T11:38:12.251Z,7.07
2023-05-06T11:40:42.130Z,8.53
2023-05-06T11:43:16.903Z,7.33
2023-05-06T11:45:45.789Z,6.17
2023-05-06T11:48:16.487Z,6.67
2023-05-06T11:50:47.668Z,6.47
2023-05-06T11:53:17.543Z,8.33
2023-05-06T11:55:45.434Z,5.33
2023-05-06T11:58:20.541Z,4.13
2023-05-06T12:00:53.197Z,3.43
2023-05-06T12:03:20.939Z,4.13
2023-05-06T12:05:49.003Z,4.27
2023-05-06T12:08:26.722Z,5.67
2023-05-06T12:10:56.304Z,4.97
2023-05-06T12:13:23.036Z,4.37
2023-05-06T12:15:50.370Z,6.33
2023-05-06T12:18:17.677Z,5.87
2023-05-06T12:20:44.486Z,4.47
2023-05-06T12:23:13.002Z,4.67
2023-05-06T12:25:40.560Z,4.73
2023-05-06T12:28:14.731Z,4.40
2023-05-06T12:30:41.525Z,3.83
2023-05-06T12:33:09.378Z,3.00
2023-05-06T12:35:35.854Z,3.50
2023-05-06T12:38:13.835Z,5.87
2023-05-06T12:40:44.958Z,3.80
2023-05-06T12:43:12.467Z,3.97
2023-05-06T12:45:39.112Z,4.03
2023-05-06T12:48:06.426Z,2.87
2023-05-06T12:50:44.716Z,2.87
2023-05-06T12:53:13.057Z,5.10
2023-05-06T12:55:40.179Z,4.80
2023-05-06T12:58:18.541Z,2.87
2023-05-06T13:00:45.508Z,4.27
2023-05-06T13:03:13.937Z,5.07
2023-05-06T13:05:40.493Z,4.30
2023-05-06T13:08:07.299Z,4.43
2023-05-06T13:10:33.785Z,4.20
2023-05-06T13:13:00.354Z,5.30
2023-05-06T13:15:27.598Z,3.53
2023-05-06T13:17:54.270Z,5.33
2023-05-06T13:20:21.201Z,4.17
2023-05-06T13:22:54.472Z,1.90
2023-05-06T13:25:22.420Z,2.87
2023-05-06T13:27:49.196Z,2.07
2023-05-06T13:30:16.159Z,4.23
2023-05-06T13:32:42.634Z,4.00
2023-05-06T13:35:09.801Z,4.57
2023-05-06T13:37:36.692Z,5.07
2023-05-06T13:40:03.333Z,3.83
2023-05-06T13:42:29.831Z,4.20
2023-05-06T13:44:56.290Z,3.50
2023-05-06T13:47:22.715Z,4.63
2023-05-06T13:49:49.216Z,3.60
2023-05-06T13:52:16.070Z,4.40
2023-05-06T13:54:42.514Z,4.53
2023-05-06T13:57:08.963Z,2.60
2023-05-06T13:59:35.417Z,3.80
2023-05-06T14:02:02.487Z,4.63
2023-05-06T14:04:28.983Z,3.40
2023-05-06T14:06:55.452Z,1.90
2023-05-06T14:09:21.889Z,2.60
2023-05-06T14:11:48.678Z,2.97
2023-05-06T14:14:15.167Z,3.63
2023-05-06T14:16:42.028Z,3.57
2023-05-06T14:19:08.621Z,3.87
2023-05-06T14:21:35.094Z,2.63
2023-05-06T14:24:01.928Z,2.47
2023-05-06T14:26:28.724Z,2.83
2023-05-06T14:28:55.181Z,3.03
2023-05-06T14:31:21.678Z,4.93
2023-05-06T14:33:48.524Z,3.40
2023-05-06T14:36:19.010Z,3.83
2023-05-06T14:38:45.827Z,4.40
2023-05-06T14:41:12.284Z,4.27
2023-05-06T14:43:39.150Z,3.87
2023-05-06T14:46:05.617Z,2.97
2023-05-06T14:48:32.451Z,3.10
2023-05-06T14:51:00.012Z,3.77
2023-05-06T14:53:26.472Z,4.53
2023-05-06T14:55:53.271Z,3.13
2023-05-06T14:58:19.711Z,3.20
2023-05-06T15:00:46.701Z,2.60
2023-05-06T15:03:13.522Z,4.13
2023-05-06T15:05:40.032Z,3.20
2023-05-06T15:08:06.925Z,2.97
2023-05-06T15:10:33.441Z,2.13
2023-05-06T15:12:59.923Z,2.83
2023-05-06T15:15:26.398Z,4.50
2023-05-06T15:17:53.177Z,2.27
2023-05-06T15:20:19.698Z,1.97
2023-05-06T15:22:46.201Z,4.30
2023-05-06T15:25:22.536Z,3.43
2023-05-06T15:27:57.804Z,3.50
2023-05-06T15:30:24.301Z,4.13
2023-05-06T15:32:50.768Z,2.10
2023-05-06T15:35:17.268Z,3.50
2023-05-06T15:37:44.249Z,3.53
2023-05-06T15:40:11.335Z,3.10
2023-05-06T15:42:38.719Z,3.37
2023-05-06T15:45:06.571Z,2.47
2023-05-06T15:47:33.388Z,2.80
2023-05-06T15:49:59.894Z,3.73
2023-05-06T15:52:26.767Z,4.03
2023-05-06T15:54:57.516Z,3.90
2023-05-06T15:57:25.797Z,2.73
2023-05-06T15:59:52.362Z,3.60
2023-05-06T16:04:48.872Z,2.93
2023-05-06T16:07:15.786Z,3.37
2023-05-06T16:09:42.710Z,1.93
2023-05-06T16:12:09.184Z,2.83
2023-05-06T16:14:35.654Z,2.87
2023-05-06T16:17:02.114Z,2.63
2023-05-06T16:19:28.573Z,3.23
2023-05-06T16:21:55.027Z,3.83
2023-05-06T16:24:21.494Z,3.60
2023-05-06T16:26:48.455Z,2.90
2023-05-06T16:29:14.991Z,3.40
2023-05-06T16:31:41.760Z,4.23
2023-05-06T16:34:08.255Z,2.30
2023-05-06T16:36:34.763Z,4.67
2023-05-06T16:39:01.387Z,4.93
2023-05-06T16:41:27.843Z,3.77
2023-05-06T16:43:54.355Z,5.23
2023-05-06T16:46:23.384Z,4.23
2023-05-06T16:48:50.815Z,2.93
2023-05-06T16:51:17.258Z,13.43
2023-05-06T16:53:43.768Z,2.90
2023-05-06T16:56:10.370Z,3.23
2023-05-06T16:58:36.845Z,2.90
2023-05-06T17:01:03.962Z,2.60
2023-05-06T17:03:30.582Z,2.37
2023-05-06T17:05:57.651Z,3.20
2023-05-06T17:08:24.511Z,1.90
2023-05-06T17:10:53.202Z,2.07
2023-05-06T17:13:19.969Z,1.87
2023-05-06T17:15:46.478Z,2.47
2023-05-06T17:18:13.323Z,2.47
2023-05-06T17:20:54.243Z,2.67
2023-05-06T17:23:22.330Z,3.33
2023-05-06T17:25:48.865Z,1.90
2023-05-06T17:28:16.867Z,2.43
2023-05-06T17:30:45.001Z,2.53
2023-05-06T17:33:11.929Z,4.23
2023-05-06T17:35:38.362Z,3.90
2023-05-06T17:38:05.199Z,3.37
2023-05-06T17:40:31.685Z,2.33
2023-05-06T17:42:58.363Z,2.33
2023-05-06T17:45:25.679Z,2.10
2023-05-06T17:47:52.169Z,1.70
2023-05-06T17:50:18.747Z,2.53
2023-05-06T17:52:45.226Z,2.10
2023-05-06T17:55:17.127Z,1.43
2023-05-06T17:57:44.143Z,1.80
2023-05-06T18:00:11.107Z,3.67
2023-05-06T18:02:38.090Z,1.93
2023-05-06T18:05:04.922Z,1.67
2023-05-06T18:07:31.886Z,3.70
2023-05-06T18:09:58.360Z,3.37
2023-05-06T18:12:25.161Z,2.57
2023-05-06T18:14:51.610Z,1.50
2023-05-06T18:17:18.390Z,1.40
2023-05-06T18:19:44.834Z,1.17
2023-05-06T18:22:11.299Z,2.23
2023-05-06T18:24:37.969Z,1.30
2023-05-06T18:27:04.505Z,1.83
2023-05-06T18:29:31.086Z,2.73
2023-05-06T18:31:57.671Z,1.43
2023-05-06T18:34:24.182Z,2.00
2023-05-06T18:36:50.676Z,2.73
2023-05-06T18:39:17.136Z,2.43
2023-05-06T18:41:43.831Z,2.67
2023-05-06T18:44:10.257Z,1.73
2023-05-06T18:46:36.703Z,1.70
2023-05-06T18:49:03.170Z,2.37
2023-05-06T18:51:29.932Z,2.20
2023-05-06T18:53:56.415Z,2.97
2023-05-06T18:56:23.236Z,2.77
2023-05-06T18:58:49.700Z,4.23
2023-05-06T19:01:16.321Z,3.73
2023-05-06T19:03:43.250Z,2.90
2023-05-06T19:06:10.066Z,3.17
2023-05-06T19:08:37.443Z,2.10
2023-05-06T19:11:04.435Z,2.97
2023-05-06T19:13:31.448Z,2.60
2023-05-06T19:15:58.246Z,1.97
2023-05-06T19:18:24.729Z,2.43
2023-05-06T19:20:51.416Z,3.50
2023-05-06T19:23:18.458Z,4.13
2023-05-06T19:25:45.130Z,2.30
2023-05-06T19:28:11.630Z,4.13
2023-05-06T19:30:38.517Z,2.87
2023-05-06T19:33:05.072Z,2.97
2023-05-06T19:35:31.983Z,2.43
2023-05-06T19:37:58.535Z,2.90
2023-05-06T19:40:25.462Z,4.73
2023-05-06T19:42:52.221Z,3.53
2023-05-06T19:45:19.531Z,2.37
2023-05-06T19:47:46.186Z,2.97
2023-05-06T19:50:13.074Z,2.53
2023-05-06T19:52:40.340Z,2.93
2023-05-06T19:55:07.274Z,2.20
2023-05-06T19:57:34.130Z,4.23
2023-05-06T20:00:00.661Z,2.93
2023-05-06T20:02:27.603Z,3.37
2023-05-06T20:04:54.426Z,3.60
2023-05-06T20:07:21.196Z,3.50
2023-05-06T20:09:49.281Z,2.53
2023-05-06T20:12:15.740Z,2.93
2023-05-06T20:14:42.190Z,3.73
2023-05-06T20:17:08.666Z,2.97
2023-05-06T20:19:35.114Z,4.53
2023-05-06T20:22:01.934Z,5.63
2023-05-06T20:24:29.591Z,3.97
2023-05-06T20:26:56.049Z,3.30
2023-05-06T20:29:22.907Z,4.07
2023-05-06T20:31:49.773Z,4.67
2023-05-06T20:34:16.487Z,4.30
2023-05-06T20:36:43.700Z,3.70
2023-05-06T20:39:10.201Z,4.57
2023-05-06T20:41:37.035Z,5.37
2023-05-06T20:44:03.872Z,5.43
2023-05-06T20:46:30.634Z,7.77
2023-05-06T20:48:57.066Z,6.30
2023-05-06T20:51:23.536Z,5.27
2023-05-06T20:53:50.238Z,6.57
2023-05-06T20:56:20.956Z,5.53
2023-05-06T20:58:48.201Z,7.10
2023-05-06T21:01:15.635Z,6.73
2023-05-06T21:03:42.568Z,7.40
2023-05-06T21:06:09.603Z,6.80
2023-05-06T21:08:36.084Z,11.47
2023-05-06T21:11:02.527Z,7.60
2023-05-06T21:13:29.172Z,7.97
2023-05-06T21:15:56.020Z,9.63
2023-05-06T21:18:22.782Z,9.20
2023-05-06T21:20:49.294Z,7.77
2023-05-06T21:23:16.731Z,10.53
2023-05-06T21:25:43.475Z,9.53
2023-05-06T21:28:09.890Z,9.60
2023-05-06T21:30:37.271Z,9.73
2023-05-06T21:33:04.683Z,10.83
2023-05-06T21:35:31.338Z,12.27
2023-05-06T21:37:58.213Z,11.20
2023-05-06T21:40:24.713Z,9.27
2023-05-06T21:42:52.852Z,9.17
2023-05-06T21:45:20.689Z,9.40
2023-05-06T21:47:47.540Z,8.33
2023-05-06T21:50:14.318Z,9.67
2023-05-06T21:52:41.242Z,10.30
2023-05-06T21:55:08.435Z,8.33
2023-05-06T21:57:35.093Z,11.33
2023-05-06T22:00:01.741Z,10.50
2023-05-06T22:02:28.295Z,12.77
2023-05-06T22:04:55.130Z,11.47
2023-05-06T22:07:21.583Z,10.90
2023-05-06T22:09:48.414Z,11.20
2023-05-06T22:12:14.870Z,12.03
2023-05-06T22:14:41.897Z,11.33
2023-05-06T22:17:10.072Z,10.80
2023-05-06T22:19:36.546Z,11.77
2023-05-06T22:22:03.721Z,11.43
2023-05-06T22:24:30.174Z,12.53
2023-05-06T22:26:56.827Z,11.30
2023-05-06T22:29:23.273Z,13.00
2023-05-06T22:31:50.111Z,11.93
2023-05-06T22:34:16.578Z,12.97
2023-05-06T22:36:43.488Z,12.57
2023-05-06T22:39:09.928Z,11.70
2023-05-06T22:41:36.385Z,14.60
2023-05-06T22:44:03.225Z,11.70
2023-05-06T22:46:29.874Z,11.67
2023-05-06T22:48:56.751Z,11.70
2023-05-06T22:51:23.186Z,12.93
2023-05-06T22:53:49.618Z,13.90
2023-05-06T22:56:16.051Z,12.97
2023-05-06T22:58:43.073Z,11.43
2023-05-06T23:01:09.547Z,12.87
2023-05-06T23:03:36.167Z,10.23
2023-05-06T23:06:03.055Z,11.47
2023-05-06T23:08:29.507Z,10.37
2023-05-06T23:10:55.957Z,10.70
2023-05-06T23:13:22.549Z,11.03
2023-05-06T23:15:49.155Z,11.30
2023-05-06T23:18:15.970Z,11.57
2023-05-06T23:20:42.408Z,10.87
2023-05-06T23:23:08.898Z,11.43
2023-05-06T23:25:35.402Z,11.43
2023-05-06T23:28:02.051Z,13.93
2023-05-06T23:30:28.784Z,15.13
2023-05-06T23:32:55.271Z,13.40
2023-05-06T23:35:22.181Z,14.23
2023-05-06T23:37:48.625Z,14.73
2023-05-06T23:40:15.759Z,13.47
2023-05-06T23:42:42.238Z,14.97
2023-05-06T23:45:09.846Z,15.53
2023-05-06T23:47:36.458Z,16.13
2023-05-06T23:50:03.444Z,15.57
2023-05-06T23:52:30.255Z,18.03
2023-05-06T23:54:56.690Z,16.40
2023-05-06T23:57:23.522Z,17.20
2023-05-06T23:59:49.951Z,17.60
